createdAt,value
2022-11-11T00:01:47.484Z,4.58
2022-11-11T00:04:16.712Z,4.61
2022-11-11T00:06:47.789Z,4.39
2022-11-11T00:09:15.808Z,4.26
2022-11-11T00:11:46.128Z,4.26
2022-11-11T00:14:16.228Z,4.15
2022-11-11T00:17:02.760Z,4.28
2022-11-11T00:19:55.554Z,4.63
2022-11-11T00:22:43.011Z,4.85
2022-11-11T00:25:11.282Z,4.80
2022-11-11T00:27:45.618Z,4.84
2022-11-11T00:30:12.873Z,4.56
2022-11-11T00:32:47.046Z,4.45
2022-11-11T00:35:33.785Z,4.29
2022-11-11T00:38:32.699Z,4.50
2022-11-11T00:41:02.097Z,4.62
2022-11-11T00:43:29.782Z,4.64
2022-11-11T00:46:23.289Z,4.81
2022-11-11T00:49:14.668Z,4.79
2022-11-11T00:51:48.638Z,4.71
2022-11-11T00:54:26.603Z,4.57
2022-11-11T00:56:54.772Z,4.35
2022-11-11T00:59:21.917Z,4.18
2022-11-11T01:01:50.011Z,4.07
2022-11-11T01:04:17.143Z,3.86
2022-11-11T01:06:48.369Z,4.11
2022-11-11T01:09:15.451Z,4.28
2022-11-11T01:11:50.311Z,4.31
2022-11-11T01:14:24.208Z,4.21
2022-11-11T01:16:52.317Z,4.13
2022-11-11T01:19:21.456Z,3.85
2022-11-11T01:21:52.612Z,3.65
2022-11-11T01:24:21.948Z,3.69
2022-11-11T01:26:49.059Z,3.70
2022-11-11T01:29:17.250Z,3.90
2022-11-11T01:31:44.290Z,3.95
2022-11-11T01:34:11.788Z,3.85
2022-11-11T01:36:39.139Z,3.76
2022-11-11T01:39:07.375Z,3.70
2022-11-11T01:41:39.237Z,3.66
2022-11-11T01:44:17.656Z,3.67
2022-11-11T01:47:04.916Z,3.63
2022-11-11T01:49:58.022Z,3.55
2022-11-11T01:52:35.891Z,3.64
2022-11-11T01:55:26.035Z,3.59
2022-11-11T01:57:59.519Z,3.62
2022-11-11T02:00:39.700Z,3.75
2022-11-11T02:03:15.564Z,3.64
2022-11-11T02:05:58.165Z,3.64
2022-11-11T02:08:37.121Z,3.51
2022-11-11T02:11:44.500Z,3.34
2022-11-11T02:14:33.095Z,3.36
2022-11-11T02:17:05.643Z,3.36
2022-11-11T02:19:49.003Z,3.33
2022-11-11T02:22:35.210Z,3.22
2022-11-11T02:25:05.285Z,3.14
2022-11-11T02:27:42.906Z,3.14
2022-11-11T02:30:15.908Z,3.01
2022-11-11T02:32:48.304Z,2.97
2022-11-11T02:35:18.871Z,3.39
2022-11-11T02:37:52.397Z,3.27
2022-11-11T02:40:29.262Z,3.44
2022-11-11T02:43:00.390Z,3.40
2022-11-11T02:45:36.041Z,3.27
2022-11-11T02:48:13.209Z,3.38
2022-11-11T02:50:41.384Z,3.26
2022-11-11T02:53:10.631Z,3.44
2022-11-11T02:55:44.620Z,3.49
2022-11-11T02:58:21.900Z,3.45
2022-11-11T03:00:49.123Z,3.29
2022-11-11T03:03:16.206Z,3.06
2022-11-11T03:05:53.689Z,3.24
2022-11-11T03:08:31.763Z,3.24
2022-11-11T03:11:04.113Z,3.29
2022-11-11T03:13:32.109Z,3.22
2022-11-11T03:16:02.053Z,3.10
2022-11-11T03:18:29.106Z,3.05
2022-11-11T03:21:54.405Z,3.03
2022-11-11T03:23:54.048Z,3.07
2022-11-11T03:26:21.503Z,2.86
2022-11-11T03:28:51.142Z,2.84
2022-11-11T03:31:32.455Z,3.11
2022-11-11T03:34:19.004Z,3.23
2022-11-11T03:37:05.809Z,3.09
2022-11-11T03:39:51.743Z,3.03
2022-11-11T03:42:18.812Z,3.04
2022-11-11T03:44:50.955Z,3.13
2022-11-11T03:47:31.345Z,3.13
2022-11-11T03:49:58.443Z,3.05
2022-11-11T03:52:28.543Z,3.08
2022-11-11T03:54:56.546Z,3.03
2022-11-11T03:57:33.813Z,2.94
2022-11-11T04:00:02.858Z,2.95
2022-11-11T04:02:52.364Z,2.90
2022-11-11T04:05:39.049Z,2.67
2022-11-11T04:09:01.640Z,2.64
2022-11-11T04:11:33.865Z,2.46
2022-11-11T04:14:33.524Z,2.39
2022-11-11T04:17:07.493Z,2.34
2022-11-11T04:20:01.994Z,2.49
2022-11-11T04:22:42.384Z,2.67
2022-11-11T04:25:41.619Z,2.65
2022-11-11T04:28:27.345Z,2.80
2022-11-11T04:30:54.344Z,2.82
2022-11-11T04:33:26.669Z,2.78
2022-11-11T04:35:59.891Z,2.84
2022-11-11T04:38:46.229Z,2.77
2022-11-11T04:41:21.174Z,2.86
2022-11-11T04:44:08.713Z,2.50
2022-11-11T04:46:45.600Z,2.42
2022-11-11T04:49:12.680Z,2.68
2022-11-11T04:51:58.169Z,2.78
2022-11-11T04:54:54.145Z,2.80
2022-11-11T04:57:23.154Z,2.70
2022-11-11T04:59:50.243Z,2.72
2022-11-11T05:02:36.821Z,2.76
2022-11-11T05:05:09.704Z,2.76
2022-11-11T05:08:02.162Z,2.65
2022-11-11T05:10:35.234Z,2.69
2022-11-11T05:13:26.876Z,2.68
2022-11-11T05:16:27.145Z,2.99
2022-11-11T05:19:18.446Z,2.92
2022-11-11T05:21:46.766Z,2.99
2022-11-11T05:24:39.225Z,2.87
2022-11-11T05:27:07.229Z,2.98
2022-11-11T05:29:34.295Z,2.92
2022-11-11T05:32:09.839Z,2.99
2022-11-11T05:34:36.881Z,2.98
2022-11-11T05:37:05.964Z,2.94
2022-11-11T05:39:32.985Z,2.98
2022-11-11T05:42:11.443Z,2.99
2022-11-11T05:44:38.909Z,3.08
2022-11-11T05:47:21.106Z,2.95
2022-11-11T05:49:48.150Z,2.91
2022-11-11T05:52:17.431Z,2.98
2022-11-11T05:54:46.366Z,2.92
2022-11-11T05:57:21.665Z,2.80
2022-11-11T05:59:48.878Z,2.83
2022-11-11T06:02:21.708Z,2.77
2022-11-11T06:04:50.054Z,2.79
2022-11-11T06:07:19.232Z,2.87
2022-11-11T06:09:50.586Z,2.76
2022-11-11T06:12:18.739Z,2.78
2022-11-11T06:14:59.002Z,2.99
2022-11-11T06:17:27.989Z,2.80
2022-11-11T06:19:55.053Z,2.82
2022-11-11T06:22:57.423Z,2.84
2022-11-11T06:25:57.300Z,3.04
2022-11-11T06:31:21.135Z,3.25
2022-11-11T06:33:48.393Z,3.31
2022-11-11T06:36:24.622Z,3.30
2022-11-11T06:38:51.573Z,3.29
2022-11-11T06:41:19.292Z,3.43
2022-11-11T06:43:49.362Z,3.29
2022-11-11T06:46:26.210Z,3.32
2022-11-11T06:48:57.754Z,3.42
2022-11-11T06:51:24.811Z,3.44
2022-11-11T06:53:51.990Z,3.36
2022-11-11T06:56:28.164Z,3.31
2022-11-11T06:58:57.175Z,3.35
2022-11-11T07:01:33.521Z,3.44
2022-11-11T07:04:02.004Z,3.57
2022-11-11T07:06:29.077Z,3.88
2022-11-11T07:09:28.986Z,4.09
2022-11-11T07:11:57.049Z,4.16
2022-11-11T07:14:24.241Z,4.23
2022-11-11T07:16:52.226Z,4.28
2022-11-11T07:19:21.382Z,4.43
2022-11-11T07:21:50.565Z,4.75
2022-11-11T07:24:17.589Z,4.86
2022-11-11T07:26:45.667Z,4.83
2022-11-11T07:29:14.474Z,4.80
2022-11-11T07:31:42.268Z,4.82
2022-11-11T07:34:09.235Z,4.84
2022-11-11T07:36:37.244Z,4.93
2022-11-11T07:39:08.925Z,5.05
2022-11-11T07:41:37.221Z,5.12
2022-11-11T07:44:05.430Z,5.11
2022-11-11T07:46:33.665Z,5.18
2022-11-11T07:49:01.692Z,5.49
2022-11-11T07:51:28.724Z,5.68
2022-11-11T07:53:58.036Z,5.81
2022-11-11T07:56:25.060Z,5.91
2022-11-11T07:58:53.479Z,5.99
2022-11-11T08:01:22.670Z,6.12
2022-11-11T08:03:50.814Z,6.09
2022-11-11T08:06:22.684Z,6.17
2022-11-11T08:08:52.981Z,6.27
2022-11-11T08:11:44.113Z,6.26
2022-11-11T08:14:17.184Z,6.35
2022-11-11T08:16:45.231Z,6.50
2022-11-11T08:19:13.347Z,6.55
2022-11-11T08:21:44.529Z,6.70
2022-11-11T08:27:10.069Z,6.98
2022-11-11T08:29:37.211Z,7.04
2022-11-11T08:32:04.656Z,7.13
2022-11-11T08:34:31.969Z,7.34
2022-11-11T08:37:02.061Z,7.71
2022-11-11T08:39:29.327Z,8.11
2022-11-11T08:41:56.376Z,8.53
2022-11-11T08:44:24.573Z,9.13
2022-11-11T08:46:54.809Z,9.48
2022-11-11T08:49:23.097Z,9.73
2022-11-11T08:51:50.071Z,9.91
2022-11-11T08:54:17.065Z,10.08
2022-11-11T08:56:51.953Z,10.24
2022-11-11T08:59:25.041Z,10.33
2022-11-11T09:01:52.086Z,10.37
2022-11-11T09:07:10.788Z,10.48
2022-11-11T09:09:44.051Z,11.10
2022-11-11T09:12:11.132Z,12.28
2022-11-11T09:14:39.281Z,12.85
2022-11-11T09:17:07.386Z,13.06
2022-11-11T09:19:37.861Z,13.07
2022-11-11T09:22:05.345Z,12.72
2022-11-11T09:24:32.391Z,13.41
2022-11-11T09:26:59.389Z,13.39
2022-11-11T09:29:26.495Z,13.36
2022-11-11T09:31:53.544Z,13.18
2022-11-11T09:34:20.634Z,12.91
2022-11-11T09:36:50.781Z,12.49
2022-11-11T09:39:17.910Z,12.33
2022-11-11T09:41:46.068Z,12.47
2022-11-11T09:45:02.622Z,12.26
2022-11-11T09:47:44.639Z,11.90
2022-11-11T09:50:26.895Z,11.48
2022-11-11T09:53:09.942Z,11.60
2022-11-11T09:55:50.080Z,11.44
2022-11-11T09:58:24.397Z,11.21
2022-11-11T10:01:09.695Z,11.06
2022-11-11T10:03:47.124Z,11.07
2022-11-11T10:06:24.341Z,11.06
2022-11-11T10:09:07.839Z,11.03
2022-11-11T10:12:14.191Z,11.21
2022-11-11T10:14:47.360Z,11.45
2022-11-11T10:17:52.095Z,11.57
2022-11-11T10:20:43.454Z,11.54
2022-11-11T10:23:29.642Z,11.50
2022-11-11T10:26:02.940Z,11.47
2022-11-11T10:28:36.260Z,11.39
2022-11-11T10:31:16.040Z,11.47
2022-11-11T10:34:02.180Z,11.79
2022-11-11T10:36:37.254Z,12.03
2022-11-11T10:39:06.707Z,12.22
2022-11-11T10:42:01.882Z,12.49
2022-11-11T10:44:36.717Z,12.39
2022-11-11T10:47:13.710Z,12.18
2022-11-11T10:49:55.840Z,12.59
2022-11-11T10:52:35.958Z,12.51
2022-11-11T10:55:10.100Z,12.51
2022-11-11T10:57:45.463Z,12.63
2022-11-11T11:00:14.725Z,12.70
2022-11-11T11:03:00.002Z,13.30
2022-11-11T11:05:29.518Z,13.60
2022-11-11T11:08:02.980Z,13.97
2022-11-11T11:10:42.955Z,14.35
2022-11-11T11:13:28.560Z,13.97
2022-11-11T11:16:11.238Z,13.81
2022-11-11T11:18:43.091Z,13.55
2022-11-11T11:21:12.554Z,13.33
2022-11-11T11:23:43.348Z,13.06
2022-11-11T11:26:13.801Z,12.95
2022-11-11T11:28:58.868Z,12.86
2022-11-11T11:31:41.145Z,12.70
2022-11-11T11:34:09.242Z,12.74
2022-11-11T11:36:37.234Z,12.75
2022-11-11T11:39:07.431Z,12.80
2022-11-11T11:41:53.143Z,12.71
2022-11-11T11:44:34.199Z,12.51
2022-11-11T11:47:27.561Z,12.37
2022-11-11T11:50:14.482Z,12.32
2022-11-11T11:53:05.795Z,12.16
2022-11-11T11:56:20.579Z,12.25
2022-11-11T11:59:06.918Z,12.21
2022-11-11T12:01:41.374Z,12.12
2022-11-11T12:04:23.362Z,12.19
2022-11-11T12:07:32.532Z,12.25
2022-11-11T12:10:04.359Z,12.30
2022-11-11T12:12:59.375Z,12.20
2022-11-11T12:15:39.580Z,12.13
2022-11-11T12:18:59.440Z,12.11
2022-11-11T12:21:48.769Z,12.16
2022-11-11T12:24:25.882Z,12.11
2022-11-11T12:27:17.753Z,12.18
2022-11-11T12:29:54.495Z,12.13
2022-11-11T12:32:59.769Z,12.40
2022-11-11T12:35:49.331Z,12.48
2022-11-11T12:38:58.048Z,12.53
2022-11-11T12:41:47.887Z,12.44
2022-11-11T12:44:18.019Z,12.57
2022-11-11T12:47:03.603Z,12.53
2022-11-11T12:49:50.505Z,12.72
2022-11-11T12:52:59.146Z,12.75
2022-11-11T12:55:44.253Z,12.58
2022-11-11T12:58:45.029Z,12.52
2022-11-11T13:01:30.249Z,12.52
2022-11-11T13:04:10.267Z,12.30
2022-11-11T13:07:14.595Z,12.32
2022-11-11T13:09:51.949Z,12.33
2022-11-11T13:12:59.238Z,12.30
2022-11-11T13:15:27.846Z,12.31
2022-11-11T13:17:55.260Z,12.12
2022-11-11T13:21:06.596Z,12.21
2022-11-11T13:23:33.795Z,12.11
2022-11-11T13:26:12.650Z,12.18
2022-11-11T13:28:48.608Z,12.28
2022-11-11T13:31:29.770Z,12.36
2022-11-11T13:34:21.079Z,12.37
2022-11-11T13:36:54.978Z,12.29
2022-11-11T13:39:51.855Z,12.15
2022-11-11T13:42:29.305Z,12.21
2022-11-11T13:45:03.649Z,12.19
2022-11-11T13:47:37.496Z,12.28
2022-11-11T13:50:26.447Z,12.25
2022-11-11T13:53:05.715Z,12.18
2022-11-11T13:55:38.678Z,12.17
2022-11-11T13:58:07.118Z,12.12
2022-11-11T14:00:39.374Z,12.09
2022-11-11T14:03:18.702Z,12.04
2022-11-11T14:05:46.709Z,11.96
2022-11-11T14:08:50.874Z,11.94
2022-11-11T14:11:27.012Z,12.06
2022-11-11T14:14:33.184Z,11.95
2022-11-11T14:17:14.896Z,12.07
2022-11-11T14:19:44.990Z,12.00
2022-11-11T14:22:34.393Z,11.71
2022-11-11T14:25:35.530Z,11.68
2022-11-11T14:28:03.775Z,11.55
2022-11-11T14:30:41.203Z,11.50
2022-11-11T14:33:32.135Z,11.33
2022-11-11T14:36:22.904Z,11.23
2022-11-11T14:39:01.932Z,11.31
2022-11-11T14:41:58.471Z,11.41
2022-11-11T14:44:32.420Z,11.28
2022-11-11T14:47:42.669Z,11.21
2022-11-11T14:50:35.770Z,11.04
2022-11-11T14:53:18.203Z,11.02
2022-11-11T14:55:53.033Z,10.86
2022-11-11T14:58:27.265Z,11.02
2022-11-11T15:01:12.763Z,10.83
2022-11-11T15:03:50.345Z,10.81
2022-11-11T15:06:27.173Z,10.62
2022-11-11T15:09:28.194Z,10.47
2022-11-11T15:12:01.448Z,10.34
2022-11-11T15:14:57.520Z,10.30
2022-11-11T15:18:09.632Z,10.24
2022-11-11T15:21:03.726Z,10.15
2022-11-11T15:23:43.743Z,10.07
2022-11-11T15:26:29.156Z,9.89
2022-11-11T15:29:20.858Z,9.89
2022-11-11T15:31:51.671Z,9.68
2022-11-11T15:34:44.778Z,9.67
2022-11-11T15:37:22.295Z,9.65
2022-11-11T15:39:56.074Z,9.64
2022-11-11T15:42:32.370Z,9.69
2022-11-11T15:45:04.184Z,9.78
2022-11-11T15:47:36.823Z,9.73
2022-11-11T15:50:46.387Z,9.73
2022-11-11T15:53:24.586Z,9.61
2022-11-11T15:56:01.049Z,9.56
2022-11-11T15:58:32.405Z,9.57
2022-11-11T16:01:08.539Z,9.40
2022-11-11T16:03:45.687Z,9.61
2022-11-11T16:06:15.644Z,9.79
2022-11-11T16:08:49.360Z,9.71
2022-11-11T16:11:37.933Z,9.74
2022-11-11T16:14:08.588Z,9.58
2022-11-11T16:17:35.185Z,9.44
2022-11-11T16:20:04.983Z,9.31
2022-11-11T16:22:48.304Z,9.21
2022-11-11T16:25:22.463Z,9.17
2022-11-11T16:27:52.911Z,8.96
2022-11-11T16:30:46.506Z,9.01
2022-11-11T16:33:31.916Z,9.03
2022-11-11T16:36:18.395Z,9.08
2022-11-11T16:38:45.442Z,8.93
2022-11-11T16:41:34.987Z,8.72
2022-11-11T16:44:23.493Z,8.94
2022-11-11T16:46:59.766Z,8.94
2022-11-11T16:49:39.183Z,8.65
2022-11-11T16:52:25.508Z,8.44
2022-11-11T16:54:58.794Z,8.53
2022-11-11T16:57:37.072Z,8.50
2022-11-11T17:00:14.158Z,8.52
2022-11-11T17:10:16.170Z,8.47
2022-11-11T17:12:43.724Z,8.51
2022-11-11T17:15:17.915Z,8.49
2022-11-11T17:17:50.270Z,8.47
2022-11-11T17:20:22.064Z,8.49
2022-11-11T17:23:00.826Z,8.53
2022-11-11T17:25:27.968Z,8.42
2022-11-11T17:30:40.601Z,8.14
2022-11-11T17:33:08.043Z,8.00
2022-11-11T17:35:35.681Z,7.88
2022-11-11T17:38:06.345Z,7.82
2022-11-11T17:40:40.886Z,7.75
2022-11-11T17:46:55.638Z,8.01
2022-11-11T17:49:49.978Z,7.80
2022-11-11T17:52:13.158Z,7.76
2022-11-11T17:54:40.194Z,7.73
2022-11-11T17:57:08.186Z,7.88
2022-11-11T17:59:37.410Z,7.89
2022-11-11T18:02:07.906Z,7.91
2022-11-11T18:04:36.084Z,7.97
2022-11-11T18:07:48.501Z,7.92
2022-11-11T18:10:08.960Z,7.91
2022-11-11T18:13:09.675Z,7.84
2022-11-11T18:15:53.437Z,7.83
2022-11-11T18:18:22.841Z,7.72
2022-11-11T18:20:54.399Z,7.74
2022-11-11T18:27:13.305Z,7.74
2022-11-11T18:29:43.233Z,7.67
2022-11-11T18:32:15.725Z,7.68
2022-11-11T18:38:11.938Z,7.36
2022-11-11T18:45:23.581Z,7.17
2022-11-11T18:47:53.420Z,7.12
2022-11-11T18:50:23.105Z,7.05
2022-11-11T18:52:53.415Z,6.87
2022-11-11T18:55:33.844Z,6.88
2022-11-11T18:58:13.404Z,6.85
2022-11-11T19:00:46.048Z,6.92
2022-11-11T19:03:22.302Z,6.97
2022-11-11T19:05:53.968Z,6.93
2022-11-11T19:08:22.606Z,6.88
2022-11-11T19:10:54.784Z,6.86
2022-11-11T19:13:23.347Z,6.82
2022-11-11T19:15:52.180Z,6.93
2022-11-11T19:18:21.421Z,7.04
2022-11-11T19:20:49.193Z,7.08
2022-11-11T19:23:16.554Z,7.10
2022-11-11T19:25:44.695Z,7.23
2022-11-11T19:28:18.557Z,7.27
2022-11-11T19:30:50.226Z,7.30
2022-11-11T19:33:17.273Z,7.34
2022-11-11T19:35:44.533Z,7.42
2022-11-11T19:38:11.735Z,7.41
2022-11-11T19:40:38.872Z,7.54
2022-11-11T19:43:06.514Z,7.50
2022-11-11T19:45:36.894Z,7.53
2022-11-11T19:48:04.500Z,7.70
2022-11-11T19:50:31.571Z,7.71
2022-11-11T19:52:59.964Z,7.80
2022-11-11T19:55:31.180Z,7.86
2022-11-11T19:57:58.602Z,7.92
2022-11-11T20:00:30.883Z,7.85
2022-11-11T20:02:57.904Z,7.69
2022-11-11T20:05:25.361Z,7.58
2022-11-11T20:08:10.219Z,7.70
2022-11-11T20:10:42.260Z,7.76
2022-11-11T20:13:10.283Z,7.87
2022-11-11T20:15:37.691Z,7.86
2022-11-11T20:18:04.790Z,7.90
2022-11-11T20:20:31.892Z,7.82
2022-11-11T20:22:59.150Z,7.80
2022-11-11T20:25:26.577Z,7.78
2022-11-11T20:27:54.830Z,7.76
2022-11-11T20:30:24.030Z,7.82
2022-11-11T20:32:52.703Z,7.78
2022-11-11T20:35:21.252Z,7.83
2022-11-11T20:37:49.401Z,7.87
2022-11-11T20:40:21.014Z,7.93
2022-11-11T20:42:49.154Z,7.92
2022-11-11T20:45:17.643Z,7.91
2022-11-11T20:47:46.620Z,7.86
2022-11-11T20:50:15.373Z,7.97
2022-11-11T20:52:43.661Z,8.02
2022-11-11T20:55:11.975Z,8.04
2022-11-11T20:57:41.169Z,8.05
2022-11-11T21:00:09.760Z,8.03
2022-11-11T21:02:40.201Z,8.01
2022-11-11T21:05:10.171Z,7.74
2022-11-11T21:07:38.464Z,7.82
2022-11-11T21:10:06.426Z,7.72
2022-11-11T21:12:38.980Z,7.58
2022-11-11T21:15:07.201Z,7.51
2022-11-11T21:17:35.320Z,7.43
2022-11-11T21:20:02.720Z,7.33
2022-11-11T21:22:32.083Z,7.33
2022-11-11T21:24:59.926Z,7.29
2022-11-11T21:27:34.017Z,7.19
2022-11-11T21:30:02.970Z,7.19
2022-11-11T21:32:36.383Z,7.02
2022-11-11T21:35:12.107Z,6.81
2022-11-11T21:37:41.217Z,6.57
2022-11-11T21:40:10.444Z,6.61
2022-11-11T21:42:46.083Z,6.58
2022-11-11T21:45:30.302Z,6.49
2022-11-11T21:48:03.702Z,6.48
2022-11-11T21:50:34.955Z,6.50
2022-11-11T21:53:03.042Z,6.43
2022-11-11T21:55:32.111Z,6.55
2022-11-11T21:57:59.183Z,6.44
2022-11-11T22:00:31.342Z,6.14
2022-11-11T22:03:05.519Z,5.98
2022-11-11T22:05:33.621Z,6.06
2022-11-11T22:08:05.113Z,6.03
2022-11-11T22:10:32.352Z,6.19
2022-11-11T22:13:06.512Z,6.12
2022-11-11T22:15:38.841Z,6.40
2022-11-11T22:18:06.183Z,6.46
2022-11-11T22:20:47.469Z,6.40
2022-11-11T22:23:14.505Z,6.41
2022-11-11T22:25:47.427Z,6.31
2022-11-11T22:28:16.537Z,6.13
2022-11-11T22:30:51.727Z,6.00
2022-11-11T22:33:25.060Z,5.98
2022-11-11T22:35:53.101Z,5.91
2022-11-11T22:38:30.760Z,5.85
2022-11-11T22:41:31.921Z,5.55
2022-11-11T22:44:01.270Z,5.60
2022-11-11T22:46:30.185Z,5.50
2022-11-11T22:49:02.932Z,5.53
2022-11-11T22:51:54.272Z,5.66
2022-11-11T22:54:23.400Z,5.21
2022-11-11T22:56:51.531Z,4.99
2022-11-11T22:59:32.466Z,4.81
2022-11-11T23:01:59.657Z,5.05
2022-11-11T23:04:30.766Z,5.05
2022-11-11T23:07:00.959Z,5.00
2022-11-11T23:09:29.978Z,5.13
2022-11-11T23:11:57.072Z,5.15
2022-11-11T23:14:32.164Z,4.86
2022-11-11T23:16:59.270Z,4.88
2022-11-11T23:19:35.090Z,4.42
2022-11-11T23:22:08.740Z,4.46
2022-11-11T23:24:44.004Z,4.73
2022-11-11T23:27:11.111Z,4.57
2022-11-11T23:29:40.213Z,4.47
2022-11-11T23:32:07.220Z,4.31
2022-11-11T23:34:35.370Z,4.13
2022-11-11T23:37:07.784Z,4.10
2022-11-11T23:39:36.276Z,3.99
2022-11-11T23:42:03.404Z,3.76
2022-11-11T23:44:41.730Z,3.69
2022-11-11T23:47:10.837Z,3.97
2022-11-11T23:49:38.990Z,3.91
2022-11-11T23:52:06.101Z,3.81
2022-11-11T23:54:33.176Z,3.61
2022-11-11T23:57:01.261Z,3.83
2022-11-11T23:59:35.512Z,3.84
